createdAt,value
2019-01-13T00:00:39.703Z,23.40
2019-01-13T00:03:07.297Z,27.10
2019-01-13T00:05:34.913Z,24.67
2019-01-13T00:08:02.390Z,25.30
2019-01-13T00:10:29.903Z,22.30
2019-01-13T00:12:57.374Z,26.93
2019-01-13T00:15:24.912Z,25.63
2019-01-13T00:17:52.444Z,31.25
2019-01-13T00:20:19.924Z,29.60
2019-01-13T00:22:47.389Z,26.63
2019-01-13T00:25:14.911Z,21.77
2019-01-13T00:27:42.396Z,24.77
2019-01-13T00:30:11.429Z,24.70
2019-01-13T00:32:39.020Z,24.80
2019-01-13T00:35:06.658Z,24.07
2019-01-13T00:37:34.136Z,23.90
2019-01-13T00:40:01.776Z,27.00
2019-01-13T00:42:29.245Z,31.33
2019-01-13T00:44:56.723Z,27.87
2019-01-13T00:47:24.245Z,25.00
2019-01-13T00:49:51.728Z,22.73
2019-01-13T00:52:19.282Z,23.63
2019-01-13T00:54:46.783Z,27.73
2019-01-13T00:57:14.251Z,22.97
2019-01-13T00:59:41.795Z,26.80
2019-01-13T01:02:09.312Z,25.20
2019-01-13T01:04:36.801Z,29.17
2019-01-13T01:07:04.968Z,22.90
2019-01-13T01:09:32.519Z,23.47
2019-01-13T01:12:00.097Z,23.40
2019-01-13T01:14:27.620Z,24.67
2019-01-13T01:16:55.118Z,27.63
2019-01-13T01:19:22.656Z,26.97
2019-01-13T01:21:51.354Z,24.40
2019-01-13T01:24:18.928Z,26.27
2019-01-13T01:26:46.420Z,26.00
2019-01-13T01:29:13.951Z,22.77
2019-01-13T01:31:41.462Z,28.73
2019-01-13T01:34:08.942Z,24.57
2019-01-13T01:36:36.496Z,21.00
2019-01-13T01:39:06.569Z,23.70
2019-01-13T01:41:34.040Z,23.43
2019-01-13T01:44:01.534Z,20.10
2019-01-13T01:46:29.050Z,26.30
2019-01-13T01:48:56.526Z,21.87
2019-01-13T01:51:24.370Z,26.20
2019-01-13T01:53:51.848Z,19.03
2019-01-13T01:56:19.409Z,21.27
2019-01-13T01:58:46.880Z,23.87
2019-01-13T02:01:14.393Z,18.50
2019-01-13T02:03:41.912Z,22.93
2019-01-13T02:06:09.375Z,19.07
2019-01-13T02:08:36.872Z,24.32
2019-01-13T02:11:04.405Z,19.60
2019-01-13T02:13:31.870Z,24.33
2019-01-13T02:15:59.364Z,22.50
2019-01-13T02:18:26.892Z,22.20
2019-01-13T02:20:54.378Z,24.45
2019-01-13T02:23:21.919Z,20.00
2019-01-13T02:25:49.581Z,26.73
2019-01-13T02:28:17.043Z,23.10
2019-01-13T02:30:48.980Z,24.20
2019-01-13T02:33:13.677Z,21.52
2019-01-13T02:35:41.482Z,20.73
2019-01-13T02:38:09.031Z,20.75
2019-01-13T02:40:36.454Z,20.17
2019-01-13T02:43:03.997Z,21.07
2019-01-13T02:45:31.473Z,20.80
2019-01-13T02:47:58.983Z,20.02
2019-01-13T02:50:26.489Z,21.30
2019-01-13T02:52:54.060Z,23.15
2019-01-13T02:55:21.545Z,23.85
2019-01-13T02:57:49.075Z,20.15
2019-01-13T03:00:17.773Z,19.07
2019-01-13T03:02:45.358Z,22.00
2019-01-13T03:05:13.422Z,25.23
2019-01-13T03:07:40.964Z,28.23
2019-01-13T03:10:12.895Z,24.80
2019-01-13T03:12:40.406Z,22.35
2019-01-13T03:15:09.049Z,19.67
2019-01-13T03:17:36.465Z,26.70
2019-01-13T03:20:05.381Z,23.62
2019-01-13T03:22:33.176Z,20.43
2019-01-13T03:25:00.652Z,21.17
2019-01-13T03:27:28.242Z,20.12
2019-01-13T03:29:55.727Z,24.80
2019-01-13T03:32:23.202Z,19.23
2019-01-13T03:34:50.813Z,21.48
2019-01-13T03:37:18.296Z,20.90
2019-01-13T03:39:45.773Z,19.40
2019-01-13T03:42:13.291Z,20.82
2019-01-13T03:44:40.774Z,24.32
2019-01-13T03:47:08.248Z,18.73
2019-01-13T03:49:35.761Z,23.35
2019-01-13T03:52:03.272Z,19.60
2019-01-13T03:54:30.756Z,21.60
2019-01-13T03:56:58.255Z,24.40
2019-01-13T03:59:25.730Z,19.37
2019-01-13T04:01:53.205Z,18.30
2019-01-13T04:04:20.734Z,20.30
2019-01-13T04:06:48.225Z,21.40
2019-01-13T04:09:15.701Z,17.85
2019-01-13T04:11:43.212Z,16.85
2019-01-13T04:14:10.683Z,20.77
2019-01-13T04:16:38.164Z,19.25
2019-01-13T04:19:05.713Z,14.25
2019-01-13T04:21:33.198Z,18.75
2019-01-13T04:24:00.664Z,19.50
2019-01-13T04:26:28.242Z,16.20
2019-01-13T04:28:55.776Z,13.93
2019-01-13T04:31:26.830Z,13.28
2019-01-13T04:33:52.390Z,15.25
2019-01-13T04:36:19.956Z,13.53
2019-01-13T04:38:47.446Z,12.75
2019-01-13T04:41:14.919Z,10.90
2019-01-13T04:43:42.428Z,11.80
2019-01-13T04:46:09.901Z,8.80
2019-01-13T04:48:37.449Z,7.15
2019-01-13T04:51:04.952Z,6.20
2019-01-13T04:53:32.485Z,6.28
2019-01-13T04:56:00.031Z,4.62
2019-01-13T04:58:27.837Z,6.15
2019-01-13T05:00:55.305Z,7.45
2019-01-13T05:03:22.781Z,8.05
2019-01-13T05:05:50.290Z,4.20
2019-01-13T05:08:17.757Z,4.67
2019-01-13T05:10:45.226Z,8.20
2019-01-13T05:13:12.734Z,4.90
2019-01-13T05:15:40.224Z,5.05
2019-01-13T05:18:07.693Z,4.62
2019-01-13T05:20:35.211Z,9.65
2019-01-13T05:23:02.676Z,7.50
2019-01-13T05:25:30.154Z,8.40
2019-01-13T05:27:57.743Z,9.60
2019-01-13T05:30:25.212Z,10.95
2019-01-13T05:32:52.621Z,10.38
2019-01-13T05:35:20.195Z,14.63
2019-01-13T05:37:47.701Z,15.35
2019-01-13T05:40:18.581Z,13.80
2019-01-13T05:42:46.195Z,14.95
2019-01-13T05:45:14.929Z,16.57
2019-01-13T05:47:42.420Z,21.97
2019-01-13T05:50:11.145Z,21.90
2019-01-13T05:52:39.585Z,22.60
2019-01-13T05:55:07.719Z,19.65
2019-01-13T05:57:35.267Z,23.10
2019-01-13T06:00:03.211Z,21.33
2019-01-13T06:02:30.866Z,18.77
2019-01-13T06:04:58.375Z,22.30
2019-01-13T06:07:25.816Z,20.20
2019-01-13T06:09:53.340Z,25.35
2019-01-13T06:12:20.815Z,19.57
2019-01-13T06:14:48.296Z,22.05
2019-01-13T06:17:15.800Z,23.52
2019-01-13T06:19:43.285Z,20.15
2019-01-13T06:22:10.753Z,20.57
2019-01-13T06:24:38.259Z,20.37
2019-01-13T06:27:05.741Z,23.38
2019-01-13T06:29:33.222Z,22.73
2019-01-13T06:32:00.648Z,20.10
2019-01-13T06:34:28.137Z,21.40
2019-01-13T06:36:55.608Z,18.00
2019-01-13T06:39:23.095Z,19.92
2019-01-13T06:41:50.639Z,17.52
2019-01-13T06:44:18.208Z,18.57
2019-01-13T06:46:45.747Z,24.52
2019-01-13T06:49:13.411Z,24.05
2019-01-13T06:51:40.914Z,20.72
2019-01-13T06:54:08.386Z,21.40
2019-01-13T06:56:35.861Z,22.27
2019-01-13T06:59:03.364Z,17.77
2019-01-13T07:01:30.936Z,21.85
2019-01-13T07:03:58.437Z,19.60
2019-01-13T07:06:25.913Z,17.50
2019-01-13T07:08:53.781Z,23.15
2019-01-13T07:11:21.270Z,20.35
2019-01-13T07:13:48.808Z,21.00
2019-01-13T07:16:16.347Z,22.32
2019-01-13T07:18:43.815Z,20.37
2019-01-13T07:21:11.287Z,22.22
2019-01-13T07:23:38.830Z,29.00
2019-01-13T07:26:06.344Z,25.15
2019-01-13T07:28:33.885Z,26.05
2019-01-13T07:31:01.424Z,27.77
2019-01-13T07:33:28.977Z,24.82
2019-01-13T07:35:56.458Z,26.57
2019-01-13T07:38:24.558Z,23.90
2019-01-13T07:40:52.115Z,30.50
2019-01-13T07:43:19.599Z,29.32
2019-01-13T07:45:47.185Z,29.85
2019-01-13T07:48:14.659Z,32.10
2019-01-13T07:50:42.273Z,31.45
2019-01-13T07:53:09.784Z,31.37
2019-01-13T07:55:37.250Z,30.82
2019-01-13T07:58:04.730Z,29.02
2019-01-13T08:00:32.230Z,30.48
2019-01-13T08:02:59.736Z,32.55
2019-01-13T08:05:27.283Z,29.87
2019-01-13T08:07:54.800Z,34.38
2019-01-13T08:10:22.287Z,30.02
2019-01-13T08:12:49.772Z,36.48
2019-01-13T08:15:18.469Z,29.27
2019-01-13T08:17:46.119Z,33.00
2019-01-13T08:20:15.093Z,30.95
2019-01-13T08:22:42.687Z,33.15
2019-01-13T08:25:10.288Z,35.78
2019-01-13T08:27:37.737Z,32.48
2019-01-13T08:30:06.714Z,29.75
2019-01-13T08:32:34.190Z,32.00
2019-01-13T08:35:01.741Z,30.10
2019-01-13T08:37:29.239Z,30.50
2019-01-13T08:39:56.696Z,28.47
2019-01-13T08:42:24.202Z,32.40
2019-01-13T08:44:51.697Z,28.30
2019-01-13T08:47:19.228Z,31.02
2019-01-13T08:49:46.802Z,43.50
2019-01-13T08:52:14.351Z,36.73
2019-01-13T08:54:41.843Z,38.03
2019-01-13T08:57:09.325Z,32.63
2019-01-13T08:59:36.828Z,35.40
2019-01-13T09:02:04.298Z,34.30
2019-01-13T09:04:31.822Z,32.07
2019-01-13T09:06:59.288Z,30.70
2019-01-13T09:09:26.772Z,35.50
2019-01-13T09:11:54.264Z,31.93
2019-01-13T09:14:21.737Z,36.33
2019-01-13T09:16:49.218Z,34.90
2019-01-13T09:19:16.709Z,38.83
2019-01-13T09:21:44.175Z,33.17
2019-01-13T09:24:11.654Z,34.67
2019-01-13T09:26:39.148Z,30.70
2019-01-13T09:29:06.691Z,32.43
2019-01-13T09:31:34.202Z,26.90
2019-01-13T09:34:01.690Z,28.20
2019-01-13T09:36:29.201Z,27.30
2019-01-13T09:38:56.664Z,28.50
2019-01-13T09:41:24.162Z,28.80
2019-01-13T09:43:52.559Z,29.10
2019-01-13T09:46:20.099Z,25.90
2019-01-13T09:48:47.562Z,22.23
2019-01-13T09:51:15.054Z,27.83
2019-01-13T09:53:42.532Z,26.63
2019-01-13T09:56:09.989Z,23.83
2019-01-13T09:58:37.847Z,20.93
2019-01-13T10:01:05.373Z,18.20
2019-01-13T10:03:32.863Z,20.13
2019-01-13T10:06:00.350Z,18.90
2019-01-13T10:08:27.860Z,16.20
2019-01-13T10:10:55.267Z,16.87
2019-01-13T10:13:22.746Z,20.23
2019-01-13T10:15:50.211Z,17.23
2019-01-13T10:18:17.710Z,18.03
2019-01-13T10:20:45.172Z,17.43
2019-01-13T10:23:12.638Z,22.23
2019-01-13T10:25:40.134Z,20.50
2019-01-13T10:28:07.681Z,19.93
2019-01-13T10:30:35.203Z,21.87
2019-01-13T10:33:03.715Z,14.70
2019-01-13T10:35:31.191Z,16.13
2019-01-13T10:37:58.655Z,18.33
2019-01-13T10:40:26.872Z,19.83
2019-01-13T10:42:54.417Z,10.83
2019-01-13T10:45:21.950Z,10.63
2019-01-13T10:47:49.461Z,15.40
2019-01-13T10:50:18.396Z,16.77
2019-01-13T10:52:45.879Z,15.33
2019-01-13T10:55:13.584Z,19.63
2019-01-13T10:57:41.039Z,17.30
2019-01-13T11:00:22.160Z,20.50
2019-01-13T11:02:49.636Z,16.87
2019-01-13T11:05:17.190Z,13.30
2019-01-13T11:07:44.774Z,17.07
2019-01-13T11:10:13.555Z,11.20
2019-01-13T11:12:41.056Z,19.20
2019-01-13T11:15:09.867Z,14.67
2019-01-13T11:17:37.349Z,13.00
2019-01-13T11:20:09.384Z,10.00
2019-01-13T11:22:36.872Z,9.37
2019-01-13T11:25:04.859Z,12.87
2019-01-13T11:27:32.338Z,12.20
2019-01-13T11:29:59.836Z,10.53
2019-01-13T11:32:27.345Z,13.63
2019-01-13T11:34:54.833Z,12.63
2019-01-13T11:37:22.331Z,14.17
2019-01-13T11:39:49.810Z,13.50
2019-01-13T11:42:17.307Z,18.13
2019-01-13T11:44:44.884Z,13.10
2019-01-13T11:47:12.342Z,10.17
2019-01-13T11:49:39.888Z,15.23
2019-01-13T11:52:07.416Z,14.50
2019-01-13T11:54:34.948Z,11.47
2019-01-13T11:57:02.499Z,13.60
2019-01-13T11:59:30.051Z,14.40
2019-01-13T12:01:57.524Z,11.97
2019-01-13T12:04:25.083Z,11.57
2019-01-13T12:06:52.645Z,10.83
2019-01-13T12:09:20.200Z,9.43
2019-01-13T12:11:47.687Z,10.33
2019-01-13T12:14:15.280Z,10.47
2019-01-13T12:16:42.793Z,8.40
2019-01-13T12:19:10.264Z,11.47
2019-01-13T12:21:37.836Z,8.90
2019-01-13T12:24:05.363Z,10.13
2019-01-13T12:26:32.867Z,8.50
2019-01-13T12:29:00.365Z,9.23
2019-01-13T12:31:27.832Z,10.03
2019-01-13T12:33:55.302Z,9.90
2019-01-13T12:36:22.787Z,9.73
2019-01-13T12:38:50.267Z,9.10
2019-01-13T12:41:17.751Z,9.40
2019-01-13T12:43:45.313Z,13.10
2019-01-13T12:46:12.795Z,10.57
2019-01-13T12:48:40.293Z,12.17
2019-01-13T12:51:07.824Z,10.40
2019-01-13T12:53:35.319Z,10.33
2019-01-13T12:56:02.903Z,10.10
2019-01-13T12:58:30.345Z,12.27
2019-01-13T13:00:57.813Z,9.60
2019-01-13T13:03:31.467Z,9.57
2019-01-13T13:05:54.469Z,9.63
2019-01-13T13:08:21.988Z,10.43
2019-01-13T13:10:49.446Z,9.63
2019-01-13T13:13:17.044Z,8.97
2019-01-13T13:18:35.455Z,10.53
2019-01-13T13:21:02.998Z,11.00
2019-01-13T13:23:30.498Z,10.33
2019-01-13T13:25:58.000Z,12.60
2019-01-13T13:28:25.844Z,14.10
2019-01-13T13:30:53.389Z,11.00
2019-01-13T13:33:20.982Z,11.77
2019-01-13T13:35:48.519Z,12.47
2019-01-13T13:38:15.978Z,11.53
2019-01-13T13:40:43.490Z,10.67
2019-01-13T13:43:10.949Z,12.20
2019-01-13T13:45:38.409Z,10.20
2019-01-13T13:48:05.902Z,10.20
2019-01-13T13:50:33.436Z,10.53
2019-01-13T13:53:00.900Z,10.10
2019-01-13T13:55:28.405Z,11.50
2019-01-13T13:57:55.891Z,11.23
2019-01-13T14:00:24.908Z,12.37
2019-01-13T14:02:52.499Z,11.93
2019-01-13T14:05:20.278Z,11.77
2019-01-13T14:07:47.906Z,9.60
2019-01-13T14:10:16.912Z,11.07
2019-01-13T14:12:44.431Z,10.70
2019-01-13T14:15:11.900Z,12.40
2019-01-13T14:17:39.407Z,8.17
2019-01-13T14:20:11.841Z,13.57
2019-01-13T14:22:39.287Z,14.03
2019-01-13T14:25:06.908Z,12.43
2019-01-13T14:27:34.389Z,12.03
2019-01-13T14:30:01.870Z,17.97
2019-01-13T14:32:29.385Z,13.20
2019-01-13T14:34:56.849Z,12.53
2019-01-13T14:37:24.324Z,10.20
2019-01-13T14:39:51.914Z,12.50
2019-01-13T14:42:19.368Z,9.40
2019-01-13T14:44:46.943Z,11.03
2019-01-13T14:47:14.392Z,16.63
2019-01-13T14:49:41.857Z,16.10
2019-01-13T14:52:09.422Z,13.13
2019-01-13T14:54:36.922Z,10.27
2019-01-13T14:57:04.461Z,14.40
2019-01-13T14:59:31.932Z,14.87
2019-01-13T15:01:59.449Z,20.17
2019-01-13T15:04:26.911Z,11.17
2019-01-13T15:06:54.382Z,11.57
2019-01-13T15:09:21.865Z,14.73
2019-01-13T15:11:49.341Z,16.20
2019-01-13T15:14:16.879Z,11.47
2019-01-13T15:16:44.373Z,11.00
2019-01-13T15:19:11.928Z,10.13
2019-01-13T15:21:39.392Z,14.10
2019-01-13T15:24:06.905Z,9.30
2019-01-13T15:26:34.368Z,10.13
2019-01-13T15:29:01.830Z,14.60
2019-01-13T15:31:29.403Z,14.67
2019-01-13T15:33:56.888Z,16.13
2019-01-13T15:36:24.347Z,20.20
2019-01-13T15:38:51.831Z,15.73
2019-01-13T15:41:19.299Z,16.60
2019-01-13T15:43:46.849Z,15.70
2019-01-13T15:46:14.503Z,25.80
2019-01-13T15:48:41.978Z,18.30
2019-01-13T15:51:09.426Z,21.30
2019-01-13T15:53:36.983Z,21.43
2019-01-13T15:56:04.550Z,15.47
2019-01-13T15:58:32.115Z,16.17
2019-01-13T16:00:59.601Z,26.17
2019-01-13T16:03:27.138Z,13.30
2019-01-13T16:05:54.654Z,17.70
2019-01-13T16:08:22.137Z,17.77
2019-01-13T16:10:49.611Z,11.60
2019-01-13T16:13:17.181Z,13.80
2019-01-13T16:15:44.636Z,12.83
2019-01-13T16:18:12.199Z,12.27
2019-01-13T16:20:39.692Z,17.30
2019-01-13T16:23:07.171Z,22.80
2019-01-13T16:25:34.736Z,20.50
2019-01-13T16:28:02.296Z,38.63
2019-01-13T16:30:30.876Z,51.23
2019-01-13T16:32:58.399Z,39.23
2019-01-13T16:35:25.866Z,63.17
2019-01-13T16:37:53.351Z,76.67
2019-01-13T16:40:21.620Z,74.00
2019-01-13T16:42:49.064Z,61.90
2019-01-13T16:45:17.034Z,42.37
2019-01-13T16:47:44.615Z,43.20
2019-01-13T16:50:13.610Z,37.60
2019-01-13T16:52:41.410Z,35.77
2019-01-13T16:55:09.859Z,40.80
2019-01-13T16:57:37.365Z,34.17
2019-01-13T17:00:07.954Z,27.03
2019-01-13T17:02:35.541Z,27.77
2019-01-13T17:05:03.392Z,18.80
2019-01-13T17:07:30.866Z,15.87
2019-01-13T17:09:58.445Z,20.83
2019-01-13T17:12:25.929Z,13.60
2019-01-13T17:14:53.471Z,15.30
2019-01-13T17:17:20.999Z,19.13
2019-01-13T17:19:48.543Z,13.03
2019-01-13T17:22:16.021Z,17.93
2019-01-13T17:24:43.537Z,21.77
2019-01-13T17:27:11.091Z,12.33
2019-01-13T17:29:38.572Z,16.17
2019-01-13T17:32:06.057Z,15.77
2019-01-13T17:34:36.104Z,17.70
2019-01-13T17:37:02.883Z,23.43
2019-01-13T17:39:30.354Z,18.80
2019-01-13T17:41:58.069Z,24.00
2019-01-13T17:44:25.551Z,18.30
2019-01-13T17:46:53.103Z,16.10
2019-01-13T17:49:20.616Z,11.97
2019-01-13T17:51:48.250Z,18.90
2019-01-13T17:54:15.788Z,15.50
2019-01-13T17:56:43.397Z,14.17
2019-01-13T17:59:10.949Z,14.60
2019-01-13T18:01:38.503Z,13.10
2019-01-13T18:04:06.077Z,14.20
2019-01-13T18:06:33.628Z,16.93
2019-01-13T18:09:01.176Z,17.53
2019-01-13T18:11:28.769Z,12.80
2019-01-13T18:13:56.318Z,11.27
2019-01-13T18:16:23.781Z,9.47
2019-01-13T18:18:51.288Z,13.10
2019-01-13T18:21:18.767Z,11.73
2019-01-13T18:23:46.236Z,12.03
2019-01-13T18:26:13.844Z,13.27
2019-01-13T18:28:41.303Z,10.37
2019-01-13T18:31:08.838Z,9.23
2019-01-13T18:33:36.359Z,9.70
2019-01-13T18:36:03.846Z,16.30
2019-01-13T18:38:31.350Z,14.20
2019-01-13T18:40:58.920Z,11.90
2019-01-13T18:43:26.377Z,11.40
2019-01-13T18:45:53.876Z,11.67
2019-01-13T18:48:21.361Z,8.40
2019-01-13T18:50:48.818Z,5.63
2019-01-13T18:53:16.341Z,6.27
2019-01-13T18:55:43.856Z,6.63
2019-01-13T18:58:11.401Z,3.40
2019-01-13T19:00:39.040Z,4.73
2019-01-13T19:03:06.540Z,7.13
2019-01-13T19:05:34.069Z,5.37
2019-01-13T19:08:01.635Z,4.73
2019-01-13T19:10:30.608Z,4.87
2019-01-13T19:13:02.487Z,5.70
2019-01-13T19:15:30.001Z,3.93
2019-01-13T19:17:58.318Z,5.33
2019-01-13T19:20:26.133Z,7.10
2019-01-13T19:22:53.655Z,5.83
2019-01-13T19:25:21.195Z,5.50
2019-01-13T19:27:48.795Z,4.90
2019-01-13T19:30:16.256Z,5.83
2019-01-13T19:32:43.748Z,5.80
2019-01-13T19:35:12.779Z,4.53
2019-01-13T19:37:40.256Z,4.10
2019-01-13T19:40:12.331Z,3.80
2019-01-13T19:42:39.994Z,3.53
2019-01-13T19:45:08.865Z,4.60
2019-01-13T19:47:36.315Z,3.10
2019-01-13T19:50:05.360Z,6.40
2019-01-13T19:52:32.863Z,4.97
2019-01-13T19:55:00.365Z,4.13
2019-01-13T19:57:27.846Z,4.17
2019-01-13T19:59:55.333Z,4.00
2019-01-13T20:02:22.882Z,4.47
2019-01-13T20:04:50.388Z,3.60
2019-01-13T20:07:17.900Z,3.47
2019-01-13T20:09:45.371Z,3.30
2019-01-13T20:12:12.855Z,2.90
2019-01-13T20:14:40.428Z,2.67
2019-01-13T20:17:07.961Z,3.10
2019-01-13T20:19:35.530Z,3.33
2019-01-13T20:22:03.139Z,3.10
2019-01-13T20:24:30.890Z,2.90
2019-01-13T20:26:58.469Z,3.13
2019-01-13T20:29:27.149Z,3.00
2019-01-13T20:31:54.705Z,5.13
2019-01-13T20:34:22.172Z,3.87
2019-01-13T20:36:49.814Z,2.70
2019-01-13T20:39:17.306Z,3.80
2019-01-13T20:41:44.837Z,3.27
2019-01-13T20:44:12.336Z,2.43
2019-01-13T20:46:39.897Z,2.60
2019-01-13T20:49:07.403Z,2.90
2019-01-13T20:51:34.914Z,4.63
2019-01-13T20:54:07.830Z,3.20
2019-01-13T20:56:31.533Z,5.80
2019-01-13T20:58:58.983Z,2.80
2019-01-13T21:01:26.716Z,2.93
2019-01-13T21:03:54.156Z,2.47
2019-01-13T21:06:21.757Z,3.10
2019-01-13T21:08:49.224Z,2.40
2019-01-13T21:11:16.710Z,2.70
2019-01-13T21:13:44.220Z,2.57
2019-01-13T21:16:11.755Z,2.80
2019-01-13T21:18:39.259Z,3.67
2019-01-13T21:21:06.783Z,3.90
2019-01-13T21:23:34.329Z,2.80
2019-01-13T21:26:02.120Z,2.50
2019-01-13T21:28:29.660Z,2.70
2019-01-13T21:30:57.196Z,2.43
2019-01-13T21:33:24.713Z,2.70
2019-01-13T21:35:52.234Z,2.10
2019-01-13T21:38:19.766Z,1.97
2019-01-13T21:40:47.347Z,1.97
2019-01-13T21:43:14.834Z,2.23
2019-01-13T21:45:42.303Z,2.17
2019-01-13T21:48:09.810Z,4.50
2019-01-13T21:50:37.310Z,7.20
2019-01-13T21:53:04.786Z,11.83
2019-01-13T21:55:32.286Z,9.73
2019-01-13T21:57:59.859Z,11.70
2019-01-13T22:00:27.802Z,14.60
2019-01-13T22:02:55.494Z,13.20
2019-01-13T22:05:23.813Z,14.70
2019-01-13T22:07:51.372Z,13.70
2019-01-13T22:10:19.809Z,15.33
2019-01-13T22:12:47.281Z,15.60
2019-01-13T22:15:16.302Z,14.30
2019-01-13T22:17:43.817Z,16.47
2019-01-13T22:20:12.774Z,28.90
2019-01-13T22:22:40.298Z,16.50
2019-01-13T22:25:08.588Z,16.10
2019-01-13T22:27:36.090Z,16.10
2019-01-13T22:30:05.078Z,12.37
2019-01-13T22:32:32.702Z,11.87
2019-01-13T22:35:00.264Z,12.07
2019-01-13T22:37:27.799Z,13.60
2019-01-13T22:39:55.311Z,11.27
2019-01-13T22:42:22.755Z,11.80
2019-01-13T22:44:50.260Z,10.43
2019-01-13T22:47:17.729Z,12.37
2019-01-13T22:49:45.265Z,11.47
2019-01-13T22:52:12.781Z,9.70
2019-01-13T22:54:40.377Z,11.77
2019-01-13T22:57:07.791Z,11.57
2019-01-13T22:59:35.300Z,10.87
2019-01-13T23:02:02.838Z,9.90
2019-01-13T23:04:30.285Z,9.43
2019-01-13T23:06:57.793Z,9.73
2019-01-13T23:09:25.250Z,10.47
2019-01-13T23:11:52.787Z,10.37
2019-01-13T23:14:20.294Z,14.00
2019-01-13T23:16:48.080Z,10.37
2019-01-13T23:19:15.538Z,13.60
2019-01-13T23:21:43.140Z,13.30
2019-01-13T23:24:10.620Z,12.17
2019-01-13T23:26:38.170Z,14.53
2019-01-13T23:29:05.833Z,9.83
2019-01-13T23:31:33.299Z,10.17
2019-01-13T23:34:00.814Z,13.23
2019-01-13T23:36:28.287Z,11.17
2019-01-13T23:38:55.760Z,12.80
2019-01-13T23:41:23.501Z,10.17
2019-01-13T23:43:51.049Z,10.03
2019-01-13T23:46:18.508Z,10.87
2019-01-13T23:48:46.011Z,14.37
2019-01-13T23:51:13.543Z,10.57
2019-01-13T23:53:41.078Z,10.30
2019-01-13T23:56:08.573Z,13.93
2019-01-13T23:58:36.046Z,9.70
